首页
METAR-TAF:

METAR-TAF

机场 :

美国海军学院

安那波利斯, 马里兰州, 美国

纬度: 38-59-29N, 经度: 076-29-00W, 海拔: 2米

当前天气观测

该预报发布于17分钟前的07:54 UTC
风速4节,风向北转西北
温度 2°C
湿度 80%
气压 1032 hPa
能見度: 16.1公里
多云层高于3800英尺
多云层高于4600英尺
多云层高于5500英尺

METAR: KNAK 130754Z AUTO 34004KT 10SM BKN038 BKN046 BKN055 02/M01 A3048 RMK AO2 SLP321 T00171011

时间: 03:11 (08:11 UTC)


TAF: 丢失

超过4000个机场的气象观测和天气预报(METAR&TAF报告)。

可查询的气象台以黄色和红色小点在地图上表示。

将鼠标移到小点上方,可查看气象台名称。

然后点击查看天气观测和预报。

如需切换地图:点击带黑十字的绿色按钮放大地图;点击带横线的绿色按钮缩小地图;或者点击绿色箭头查看邻近地区的地图。


METAR-TAF: